sensor_id;sensor_type;location;lat;lon;timestamp;P1;durP1;ratioP1;P2;durP2;ratioP2
71503;SDS011;59323;50.874;7.028;2023-01-19T00:01:12;11.10;;;4.57;;
71503;SDS011;59323;50.874;7.028;2023-01-19T00:03:37;10.70;;;4.07;;
71503;SDS011;59323;50.874;7.028;2023-01-19T00:06:04;11.33;;;4.30;;
71503;SDS011;59323;50.874;7.028;2023-01-19T00:08:31;10.30;;;4.20;;
71503;SDS011;59323;50.874;7.028;2023-01-19T00:10:56;11.63;;;3.70;;
71503;SDS011;59323;50.874;7.028;2023-01-19T00:13:21;11.60;;;4.23;;
71503;SDS011;59323;50.874;7.028;2023-01-19T00:15:47;12.83;;;4.83;;
71503;SDS011;59323;50.874;7.028;2023-01-19T00:18:12;11.67;;;4.50;;
71503;SDS011;59323;50.874;7.028;2023-01-19T00:20:38;12.23;;;4.60;;
71503;SDS011;59323;50.874;7.028;2023-01-19T00:23:04;18.87;;;4.80;;
71503;SDS011;59323;50.874;7.028;2023-01-19T00:25:31;16.23;;;4.75;;
71503;SDS011;59323;50.874;7.028;2023-01-19T00:27:56;11.70;;;4.50;;
71503;SDS011;59323;50.874;7.028;2023-01-19T00:30:22;13.73;;;4.70;;
71503;SDS011;59323;50.874;7.028;2023-01-19T00:32:47;13.07;;;3.97;;
71503;SDS011;59323;50.874;7.028;2023-01-19T00:35:12;12.97;;;5.20;;
71503;SDS011;59323;50.874;7.028;2023-01-19T00:37:38;14.07;;;4.30;;
71503;SDS011;59323;50.874;7.028;2023-01-19T00:40:03;15.37;;;5.30;;
71503;SDS011;59323;50.874;7.028;2023-01-19T00:42:29;12.52;;;4.50;;
71503;SDS011;59323;50.874;7.028;2023-01-19T00:45:13;11.90;;;4.88;;
71503;SDS011;59323;50.874;7.028;2023-01-19T00:47:40;14.60;;;4.88;;
71503;SDS011;59323;50.874;7.028;2023-01-19T00:50:07;12.80;;;4.43;;
71503;SDS011;59323;50.874;7.028;2023-01-19T00:52:36;15.70;;;4.88;;
71503;SDS011;59323;50.874;7.028;2023-01-19T00:55:02;18.05;;;5.32;;
71503;SDS011;59323;50.874;7.028;2023-01-19T00:57:27;12.73;;;4.80;;
71503;SDS011;59323;50.874;7.028;2023-01-19T00:59:53;13.27;;;5.60;;
71503;SDS011;59323;50.874;7.028;2023-01-19T01:02:19;13.27;;;4.80;;
71503;SDS011;59323;50.874;7.028;2023-01-19T01:04:44;12.63;;;4.63;;
71503;SDS011;59323;50.874;7.028;2023-01-19T01:07:09;13.60;;;5.00;;
71503;SDS011;59323;50.874;7.028;2023-01-19T01:09:34;14.63;;;5.37;;
71503;SDS011;59323;50.874;7.028;2023-01-19T01:12:00;12.10;;;4.60;;
71503;SDS011;59323;50.874;7.028;2023-01-19T01:14:25;14.67;;;5.40;;
71503;SDS011;59323;50.874;7.028;2023-01-19T01:16:50;15.57;;;5.50;;
71503;SDS011;59323;50.874;7.028;2023-01-19T01:19:16;13.10;;;5.43;;
71503;SDS011;59323;50.874;7.028;2023-01-19T01:21:41;11.77;;;4.97;;
71503;SDS011;59323;50.874;7.028;2023-01-19T01:24:07;13.67;;;5.50;;
71503;SDS011;59323;50.874;7.028;2023-01-19T01:26:33;14.20;;;5.28;;
71503;SDS011;59323;50.874;7.028;2023-01-19T01:28:58;14.60;;;5.20;;
71503;SDS011;59323;50.874;7.028;2023-01-19T01:31:24;13.03;;;5.00;;
71503;SDS011;59323;50.874;7.028;2023-01-19T01:33:49;15.15;;;5.30;;
71503;SDS011;59323;50.874;7.028;2023-01-19T01:36:15;13.17;;;5.00;;
71503;SDS011;59323;50.874;7.028;2023-01-19T01:38:40;17.00;;;5.87;;
71503;SDS011;59323;50.874;7.028;2023-01-19T01:41:06;18.40;;;6.00;;
71503;SDS011;59323;50.874;7.028;2023-01-19T01:43:42;12.85;;;4.90;;
71503;SDS011;59323;50.874;7.028;2023-01-19T01:46:10;18.15;;;5.85;;
71503;SDS011;59323;50.874;7.028;2023-01-19T01:48:36;12.48;;;5.35;;
71503;SDS011;59323;50.874;7.028;2023-01-19T01:51:07;12.77;;;5.20;;
71503;SDS011;59323;50.874;7.028;2023-01-19T01:56:33;14.48;;;5.45;;
71503;SDS011;59323;50.874;7.028;2023-01-19T01:59:02;14.07;;;5.85;;
71503;SDS011;59323;50.874;7.028;2023-01-19T02:01:30;15.73;;;5.47;;
71503;SDS011;59323;50.874;7.028;2023-01-19T02:04:14;15.60;;;5.75;;
71503;SDS011;59323;50.874;7.028;2023-01-19T02:06:40;13.73;;;5.60;;
71503;SDS011;59323;50.874;7.028;2023-01-19T02:09:24;11.93;;;5.10;;
71503;SDS011;59323;50.874;7.028;2023-01-19T02:12:12;14.48;;;5.30;;
71503;SDS011;59323;50.874;7.028;2023-01-19T02:14:56;15.00;;;4.72;;
71503;SDS011;59323;50.874;7.028;2023-01-19T02:17:21;11.40;;;4.60;;
71503;SDS011;59323;50.874;7.028;2023-01-19T02:19:46;14.63;;;4.40;;
71503;SDS011;59323;50.874;7.028;2023-01-19T02:22:23;16.17;;;5.63;;
71503;SDS011;59323;50.874;7.028;2023-01-19T02:24:55;13.02;;;5.07;;
71503;SDS011;59323;50.874;7.028;2023-01-19T02:27:21;14.35;;;5.20;;
71503;SDS011;59323;50.874;7.028;2023-01-19T02:29:46;11.50;;;4.90;;
71503;SDS011;59323;50.874;7.028;2023-01-19T02:32:12;13.03;;;4.93;;
71503;SDS011;59323;50.874;7.028;2023-01-19T02:34:37;10.88;;;4.20;;
71503;SDS011;59323;50.874;7.028;2023-01-19T02:37:05;11.97;;;4.70;;
71503;SDS011;59323;50.874;7.028;2023-01-19T02:39:37;13.45;;;5.18;;
71503;SDS011;59323;50.874;7.028;2023-01-19T02:42:07;13.63;;;5.10;;
71503;SDS011;59323;50.874;7.028;2023-01-19T02:44:38;11.50;;;4.35;;
71503;SDS011;59323;50.874;7.028;2023-01-19T02:47:07;13.73;;;4.82;;
71503;SDS011;59323;50.874;7.028;2023-01-19T02:49:33;12.48;;;4.53;;
71503;SDS011;59323;50.874;7.028;2023-01-19T02:51:58;12.00;;;4.60;;
71503;SDS011;59323;50.874;7.028;2023-01-19T02:54:59;12.35;;;4.25;;
71503;SDS011;59323;50.874;7.028;2023-01-19T03:00:20;12.50;;;4.60;;
71503;SDS011;59323;50.874;7.028;2023-01-19T03:06:02;9.65;;;3.67;;
71503;SDS011;59323;50.874;7.028;2023-01-19T03:08:41;8.77;;;3.67;;
71503;SDS011;59323;50.874;7.028;2023-01-19T03:11:15;9.30;;;3.80;;
71503;SDS011;59323;50.874;7.028;2023-01-19T03:13:41;11.52;;;3.63;;
71503;SDS011;59323;50.874;7.028;2023-01-19T03:16:16;10.20;;;3.20;;
71503;SDS011;59323;50.874;7.028;2023-01-19T03:18:46;10.23;;;3.25;;
71503;SDS011;59323;50.874;7.028;2023-01-19T03:21:17;8.35;;;3.00;;
71503;SDS011;59323;50.874;7.028;2023-01-19T03:23:46;9.15;;;3.35;;
71503;SDS011;59323;50.874;7.028;2023-01-19T03:26:14;8.57;;;3.22;;
71503;SDS011;59323;50.874;7.028;2023-01-19T03:28:43;9.07;;;3.10;;
71503;SDS011;59323;50.874;7.028;2023-01-19T03:31:17;9.38;;;3.42;;
71503;SDS011;59323;50.874;7.028;2023-01-19T03:33:55;9.32;;;3.20;;
71503;SDS011;59323;50.874;7.028;2023-01-19T03:36:25;8.00;;;2.90;;
71503;SDS011;59323;50.874;7.028;2023-01-19T03:38:55;9.90;;;3.10;;
71503;SDS011;59323;50.874;7.028;2023-01-19T03:41:23;9.33;;;2.90;;
71503;SDS011;59323;50.874;7.028;2023-01-19T03:43:51;10.20;;;3.70;;
71503;SDS011;59323;50.874;7.028;2023-01-19T03:46:18;8.70;;;3.33;;
71503;SDS011;59323;50.874;7.028;2023-01-19T03:48:44;12.45;;;3.10;;
71503;SDS011;59323;50.874;7.028;2023-01-19T03:51:10;7.93;;;2.85;;
71503;SDS011;59323;50.874;7.028;2023-01-19T03:53:37;7.33;;;2.83;;
71503;SDS011;59323;50.874;7.028;2023-01-19T03:56:02;6.75;;;2.38;;
71503;SDS011;59323;50.874;7.028;2023-01-19T03:58:28;9.80;;;2.93;;
71503;SDS011;59323;50.874;7.028;2023-01-19T04:00:53;7.97;;;2.70;;
71503;SDS011;59323;50.874;7.028;2023-01-19T04:03:19;8.30;;;2.72;;
71503;SDS011;59323;50.874;7.028;2023-01-19T04:05:44;8.47;;;2.80;;
71503;SDS011;59323;50.874;7.028;2023-01-19T04:08:10;7.40;;;2.70;;
71503;SDS011;59323;50.874;7.028;2023-01-19T04:10:36;8.20;;;2.80;;
71503;SDS011;59323;50.874;7.028;2023-01-19T04:13:02;8.80;;;3.30;;
71503;SDS011;59323;50.874;7.028;2023-01-19T04:15:28;6.43;;;2.70;;
71503;SDS011;59323;50.874;7.028;2023-01-19T04:17:58;9.23;;;3.20;;
71503;SDS011;59323;50.874;7.028;2023-01-19T04:20:25;7.25;;;2.65;;
71503;SDS011;59323;50.874;7.028;2023-01-19T04:22:52;9.95;;;2.70;;
71503;SDS011;59323;50.874;7.028;2023-01-19T04:25:18;9.25;;;3.22;;
71503;SDS011;59323;50.874;7.028;2023-01-19T04:27:45;7.70;;;2.93;;
71503;SDS011;59323;50.874;7.028;2023-01-19T04:30:16;8.88;;;3.08;;
71503;SDS011;59323;50.874;7.028;2023-01-19T04:32:42;7.18;;;2.97;;
71503;SDS011;59323;50.874;7.028;2023-01-19T04:35:08;7.60;;;2.93;;
71503;SDS011;59323;50.874;7.028;2023-01-19T04:37:33;8.17;;;3.17;;
71503;SDS011;59323;50.874;7.028;2023-01-19T04:39:59;8.87;;;3.30;;
71503;SDS011;59323;50.874;7.028;2023-01-19T04:42:24;8.53;;;3.10;;
71503;SDS011;59323;50.874;7.028;2023-01-19T04:44:51;7.07;;;2.58;;
71503;SDS011;59323;50.874;7.028;2023-01-19T04:47:16;7.73;;;2.37;;
71503;SDS011;59323;50.874;7.028;2023-01-19T04:49:42;9.17;;;2.40;;
71503;SDS011;59323;50.874;7.028;2023-01-19T04:52:07;6.80;;;2.23;;
71503;SDS011;59323;50.874;7.028;2023-01-19T04:54:33;6.97;;;2.55;;
71503;SDS011;59323;50.874;7.028;2023-01-19T04:56:58;8.80;;;2.43;;
71503;SDS011;59323;50.874;7.028;2023-01-19T04:59:23;9.33;;;2.73;;
71503;SDS011;59323;50.874;7.028;2023-01-19T05:01:49;7.13;;;2.40;;
71503;SDS011;59323;50.874;7.028;2023-01-19T05:04:14;9.02;;;2.47;;
71503;SDS011;59323;50.874;7.028;2023-01-19T05:06:40;8.13;;;2.37;;
71503;SDS011;59323;50.874;7.028;2023-01-19T05:09:05;7.53;;;2.40;;
71503;SDS011;59323;50.874;7.028;2023-01-19T05:11:33;6.82;;;2.40;;
71503;SDS011;59323;50.874;7.028;2023-01-19T05:13:59;7.40;;;2.10;;
71503;SDS011;59323;50.874;7.028;2023-01-19T05:16:24;7.77;;;2.60;;
71503;SDS011;59323;50.874;7.028;2023-01-19T05:18:49;8.03;;;2.47;;
71503;SDS011;59323;50.874;7.028;2023-01-19T05:21:15;8.93;;;2.83;;
71503;SDS011;59323;50.874;7.028;2023-01-19T05:23:40;7.35;;;2.92;;
71503;SDS011;59323;50.874;7.028;2023-01-19T05:26:05;6.23;;;2.53;;
71503;SDS011;59323;50.874;7.028;2023-01-19T05:28:31;7.57;;;2.70;;
71503;SDS011;59323;50.874;7.028;2023-01-19T05:30:57;7.47;;;2.53;;
71503;SDS011;59323;50.874;7.028;2023-01-19T05:33:23;7.63;;;2.37;;
71503;SDS011;59323;50.874;7.028;2023-01-19T05:35:49;9.43;;;2.45;;
71503;SDS011;59323;50.874;7.028;2023-01-19T05:38:16;5.90;;;2.03;;
71503;SDS011;59323;50.874;7.028;2023-01-19T05:40:41;6.50;;;1.93;;
71503;SDS011;59323;50.874;7.028;2023-01-19T05:43:07;8.85;;;2.60;;
71503;SDS011;59323;50.874;7.028;2023-01-19T05:45:32;6.60;;;2.27;;
71503;SDS011;59323;50.874;7.028;2023-01-19T05:47:58;8.70;;;2.60;;
71503;SDS011;59323;50.874;7.028;2023-01-19T05:50:23;9.23;;;3.07;;
71503;SDS011;59323;50.874;7.028;2023-01-19T05:52:49;8.55;;;2.90;;
71503;SDS011;59323;50.874;7.028;2023-01-19T05:55:17;11.77;;;3.13;;
71503;SDS011;59323;50.874;7.028;2023-01-19T05:57:42;10.68;;;2.70;;
71503;SDS011;59323;50.874;7.028;2023-01-19T06:00:08;9.83;;;2.70;;
71503;SDS011;59323;50.874;7.028;2023-01-19T06:02:34;8.07;;;2.80;;
71503;SDS011;59323;50.874;7.028;2023-01-19T06:04:59;8.52;;;3.47;;
71503;SDS011;59323;50.874;7.028;2023-01-19T06:07:24;8.80;;;3.17;;
71503;SDS011;59323;50.874;7.028;2023-01-19T06:09:50;12.13;;;3.40;;
71503;SDS011;59323;50.874;7.028;2023-01-19T06:12:15;13.17;;;3.10;;
71503;SDS011;59323;50.874;7.028;2023-01-19T06:14:40;12.97;;;3.40;;
71503;SDS011;59323;50.874;7.028;2023-01-19T06:17:06;9.27;;;3.47;;
71503;SDS011;59323;50.874;7.028;2023-01-19T06:19:32;11.05;;;3.75;;
71503;SDS011;59323;50.874;7.028;2023-01-19T06:21:57;12.13;;;3.50;;
71503;SDS011;59323;50.874;7.028;2023-01-19T06:24:23;9.60;;;3.60;;
71503;SDS011;59323;50.874;7.028;2023-01-19T06:26:49;8.70;;;3.57;;
71503;SDS011;59323;50.874;7.028;2023-01-19T06:29:14;12.73;;;3.55;;
71503;SDS011;59323;50.874;7.028;2023-01-19T06:31:40;15.10;;;3.87;;
71503;SDS011;59323;50.874;7.028;2023-01-19T06:34:05;15.07;;;3.80;;
71503;SDS011;59323;50.874;7.028;2023-01-19T06:36:31;10.00;;;3.47;;
71503;SDS011;59323;50.874;7.028;2023-01-19T06:38:57;13.60;;;3.60;;
71503;SDS011;59323;50.874;7.028;2023-01-19T06:41:22;17.07;;;3.83;;
71503;SDS011;59323;50.874;7.028;2023-01-19T06:43:48;14.00;;;4.07;;
71503;SDS011;59323;50.874;7.028;2023-01-19T06:46:13;11.30;;;3.87;;
71503;SDS011;59323;50.874;7.028;2023-01-19T06:48:38;12.57;;;4.25;;
71503;SDS011;59323;50.874;7.028;2023-01-19T06:51:04;10.63;;;4.07;;
71503;SDS011;59323;50.874;7.028;2023-01-19T06:53:33;14.77;;;4.73;;
71503;SDS011;59323;50.874;7.028;2023-01-19T06:55:59;11.48;;;4.47;;
71503;SDS011;59323;50.874;7.028;2023-01-19T06:58:26;12.32;;;5.07;;
71503;SDS011;59323;50.874;7.028;2023-01-19T07:00:54;11.48;;;4.70;;
71503;SDS011;59323;50.874;7.028;2023-01-19T07:03:25;15.18;;;5.18;;
71503;SDS011;59323;50.874;7.028;2023-01-19T07:05:51;12.60;;;4.70;;
71503;SDS011;59323;50.874;7.028;2023-01-19T07:08:17;14.07;;;5.10;;
71503;SDS011;59323;50.874;7.028;2023-01-19T07:10:42;15.83;;;4.97;;
71503;SDS011;59323;50.874;7.028;2023-01-19T07:13:07;14.10;;;5.17;;
71503;SDS011;59323;50.874;7.028;2023-01-19T07:15:33;12.13;;;4.37;;
71503;SDS011;59323;50.874;7.028;2023-01-19T07:17:58;13.77;;;5.70;;
71503;SDS011;59323;50.874;7.028;2023-01-19T07:20:24;15.40;;;5.22;;
71503;SDS011;59323;50.874;7.028;2023-01-19T07:22:55;12.63;;;5.07;;
71503;SDS011;59323;50.874;7.028;2023-01-19T07:25:21;15.93;;;5.45;;
71503;SDS011;59323;50.874;7.028;2023-01-19T07:27:47;16.95;;;5.82;;
71503;SDS011;59323;50.874;7.028;2023-01-19T07:30:12;17.40;;;5.37;;
71503;SDS011;59323;50.874;7.028;2023-01-19T07:32:40;12.48;;;5.10;;
71503;SDS011;59323;50.874;7.028;2023-01-19T07:35:09;16.95;;;5.60;;
71503;SDS011;59323;50.874;7.028;2023-01-19T07:37:34;13.73;;;5.73;;
71503;SDS011;59323;50.874;7.028;2023-01-19T07:40:00;14.23;;;5.43;;
71503;SDS011;59323;50.874;7.028;2023-01-19T07:42:26;13.20;;;5.30;;
71503;SDS011;59323;50.874;7.028;2023-01-19T07:44:51;13.77;;;5.60;;
71503;SDS011;59323;50.874;7.028;2023-01-19T07:47:17;14.82;;;5.90;;
71503;SDS011;59323;50.874;7.028;2023-01-19T07:49:42;16.47;;;5.80;;
71503;SDS011;59323;50.874;7.028;2023-01-19T07:52:08;16.10;;;6.23;;
71503;SDS011;59323;50.874;7.028;2023-01-19T07:54:33;16.17;;;6.63;;
71503;SDS011;59323;50.874;7.028;2023-01-19T07:56:59;17.67;;;5.83;;
71503;SDS011;59323;50.874;7.028;2023-01-19T07:59:25;17.93;;;6.53;;
71503;SDS011;59323;50.874;7.028;2023-01-19T08:01:51;18.65;;;6.43;;
71503;SDS011;59323;50.874;7.028;2023-01-19T08:04:17;14.23;;;6.05;;
71503;SDS011;59323;50.874;7.028;2023-01-19T08:06:43;13.98;;;5.75;;
71503;SDS011;59323;50.874;7.028;2023-01-19T08:09:10;18.98;;;6.30;;
71503;SDS011;59323;50.874;7.028;2023-01-19T08:11:36;13.07;;;5.77;;
71503;SDS011;59323;50.874;7.028;2023-01-19T08:14:01;14.82;;;6.22;;
71503;SDS011;59323;50.874;7.028;2023-01-19T08:16:27;13.43;;;5.97;;
71503;SDS011;59323;50.874;7.028;2023-01-19T08:18:52;15.73;;;6.53;;
71503;SDS011;59323;50.874;7.028;2023-01-19T08:21:17;21.07;;;6.87;;
71503;SDS011;59323;50.874;7.028;2023-01-19T08:23:43;15.53;;;6.37;;
71503;SDS011;59323;50.874;7.028;2023-01-19T08:26:24;15.50;;;6.77;;
71503;SDS011;59323;50.874;7.028;2023-01-19T08:28:52;17.98;;;7.03;;
71503;SDS011;59323;50.874;7.028;2023-01-19T08:31:18;17.67;;;6.97;;
71503;SDS011;59323;50.874;7.028;2023-01-19T08:33:43;15.10;;;6.77;;
71503;SDS011;59323;50.874;7.028;2023-01-19T08:36:09;17.17;;;6.77;;
71503;SDS011;59323;50.874;7.028;2023-01-19T08:38:34;16.60;;;7.70;;
71503;SDS011;59323;50.874;7.028;2023-01-19T08:40:59;13.82;;;6.72;;
71503;SDS011;59323;50.874;7.028;2023-01-19T08:43:25;19.27;;;6.93;;
71503;SDS011;59323;50.874;7.028;2023-01-19T08:45:51;19.37;;;7.83;;
71503;SDS011;59323;50.874;7.028;2023-01-19T08:48:18;21.02;;;7.95;;
71503;SDS011;59323;50.874;7.028;2023-01-19T08:50:45;13.63;;;6.63;;
71503;SDS011;59323;50.874;7.028;2023-01-19T08:53:11;16.48;;;6.72;;
71503;SDS011;59323;50.874;7.028;2023-01-19T08:55:37;18.20;;;7.00;;
71503;SDS011;59323;50.874;7.028;2023-01-19T08:58:03;16.53;;;6.77;;
71503;SDS011;59323;50.874;7.028;2023-01-19T09:00:30;17.85;;;7.63;;
71503;SDS011;59323;50.874;7.028;2023-01-19T09:02:58;17.65;;;6.00;;
71503;SDS011;59323;50.874;7.028;2023-01-19T09:05:25;15.48;;;6.25;;
71503;SDS011;59323;50.874;7.028;2023-01-19T09:07:50;17.17;;;6.10;;
71503;SDS011;59323;50.874;7.028;2023-01-19T09:10:16;16.50;;;5.60;;
71503;SDS011;59323;50.874;7.028;2023-01-19T09:12:42;16.05;;;5.88;;
71503;SDS011;59323;50.874;7.028;2023-01-19T09:15:09;18.05;;;6.18;;
71503;SDS011;59323;50.874;7.028;2023-01-19T09:17:37;18.13;;;6.00;;
71503;SDS011;59323;50.874;7.028;2023-01-19T09:20:03;16.70;;;5.93;;
71503;SDS011;59323;50.874;7.028;2023-01-19T09:22:30;16.33;;;5.68;;
71503;SDS011;59323;50.874;7.028;2023-01-19T09:24:55;18.27;;;6.53;;
71503;SDS011;59323;50.874;7.028;2023-01-19T09:27:20;14.63;;;6.20;;
71503;SDS011;59323;50.874;7.028;2023-01-19T09:29:46;13.17;;;5.97;;
71503;SDS011;59323;50.874;7.028;2023-01-19T09:32:16;21.73;;;6.03;;
71503;SDS011;59323;50.874;7.028;2023-01-19T09:34:43;19.75;;;6.88;;
71503;SDS011;59323;50.874;7.028;2023-01-19T09:37:08;14.67;;;5.90;;
71503;SDS011;59323;50.874;7.028;2023-01-19T09:39:34;14.90;;;6.47;;
71503;SDS011;59323;50.874;7.028;2023-01-19T09:42:20;18.70;;;7.07;;
71503;SDS011;59323;50.874;7.028;2023-01-19T09:44:55;18.70;;;6.33;;
71503;SDS011;59323;50.874;7.028;2023-01-19T09:47:22;20.58;;;7.72;;
71503;SDS011;59323;50.874;7.028;2023-01-19T09:49:52;19.90;;;7.93;;
71503;SDS011;59323;50.874;7.028;2023-01-19T09:52:22;18.20;;;7.35;;
71503;SDS011;59323;50.874;7.028;2023-01-19T09:54:49;17.30;;;6.57;;
71503;SDS011;59323;50.874;7.028;2023-01-19T09:57:18;22.63;;;7.65;;
71503;SDS011;59323;50.874;7.028;2023-01-19T09:59:45;20.35;;;7.35;;
71503;SDS011;59323;50.874;7.028;2023-01-19T10:10:03;24.02;;;7.22;;
71503;SDS011;59323;50.874;7.028;2023-01-19T10:12:43;23.65;;;8.23;;
71503;SDS011;59323;50.874;7.028;2023-01-19T10:17:53;24.93;;;8.03;;
71503;SDS011;59323;50.874;7.028;2023-01-19T10:20:32;20.95;;;8.35;;
71503;SDS011;59323;50.874;7.028;2023-01-19T10:23:03;24.20;;;7.90;;
71503;SDS011;59323;50.874;7.028;2023-01-19T10:25:38;21.80;;;7.75;;
71503;SDS011;59323;50.874;7.028;2023-01-19T10:28:04;25.15;;;8.57;;
71503;SDS011;59323;50.874;7.028;2023-01-19T10:30:30;27.10;;;7.70;;
71503;SDS011;59323;50.874;7.028;2023-01-19T10:32:55;24.37;;;8.00;;
71503;SDS011;59323;50.874;7.028;2023-01-19T10:35:22;25.63;;;8.57;;
71503;SDS011;59323;50.874;7.028;2023-01-19T10:37:53;28.60;;;9.73;;
71503;SDS011;59323;50.874;7.028;2023-01-19T10:42:59;27.55;;;9.40;;
71503;SDS011;59323;50.874;7.028;2023-01-19T10:45:28;23.13;;;8.57;;
71503;SDS011;59323;50.874;7.028;2023-01-19T10:47:59;26.85;;;9.30;;
71503;SDS011;59323;50.874;7.028;2023-01-19T10:50:35;27.77;;;8.50;;
71503;SDS011;59323;50.874;7.028;2023-01-19T10:53:03;21.38;;;7.85;;
71503;SDS011;59323;50.874;7.028;2023-01-19T10:55:34;21.77;;;8.38;;
71503;SDS011;59323;50.874;7.028;2023-01-19T10:58:08;25.02;;;8.48;;
71503;SDS011;59323;50.874;7.028;2023-01-19T11:00:51;27.38;;;8.65;;
71503;SDS011;59323;50.874;7.028;2023-01-19T11:03:23;27.07;;;9.07;;
71503;SDS011;59323;50.874;7.028;2023-01-19T11:05:52;25.85;;;8.82;;
71503;SDS011;59323;50.874;7.028;2023-01-19T11:08:21;27.73;;;9.13;;
71503;SDS011;59323;50.874;7.028;2023-01-19T11:11:01;27.30;;;8.23;;
71503;SDS011;59323;50.874;7.028;2023-01-19T11:13:29;25.02;;;8.60;;
71503;SDS011;59323;50.874;7.028;2023-01-19T11:15:56;27.97;;;9.13;;
71503;SDS011;59323;50.874;7.028;2023-01-19T11:21:08;29.80;;;9.27;;
71503;SDS011;59323;50.874;7.028;2023-01-19T11:23:37;26.13;;;9.27;;
71503;SDS011;59323;50.874;7.028;2023-01-19T11:26:25;28.77;;;8.80;;
71503;SDS011;59323;50.874;7.028;2023-01-19T11:28:51;27.53;;;9.33;;
71503;SDS011;59323;50.874;7.028;2023-01-19T11:33:55;27.23;;;9.85;;
71503;SDS011;59323;50.874;7.028;2023-01-19T11:36:22;28.15;;;9.23;;
71503;SDS011;59323;50.874;7.028;2023-01-19T11:38:54;30.17;;;9.02;;
71503;SDS011;59323;50.874;7.028;2023-01-19T11:43:51;24.42;;;8.95;;
71503;SDS011;59323;50.874;7.028;2023-01-19T11:46:19;25.75;;;8.93;;
71503;SDS011;59323;50.874;7.028;2023-01-19T11:49:00;26.83;;;8.63;;
71503;SDS011;59323;50.874;7.028;2023-01-19T11:51:33;22.02;;;7.97;;
71503;SDS011;59323;50.874;7.028;2023-01-19T11:54:07;25.30;;;9.33;;
71503;SDS011;59323;50.874;7.028;2023-01-19T11:56:41;26.85;;;8.82;;
71503;SDS011;59323;50.874;7.028;2023-01-19T11:59:08;27.75;;;8.40;;
71503;SDS011;59323;50.874;7.028;2023-01-19T12:01:37;27.50;;;9.15;;
71503;SDS011;59323;50.874;7.028;2023-01-19T12:04:14;26.02;;;9.38;;
71503;SDS011;59323;50.874;7.028;2023-01-19T12:06:46;22.83;;;8.17;;
71503;SDS011;59323;50.874;7.028;2023-01-19T12:09:33;24.20;;;9.05;;
71503;SDS011;59323;50.874;7.028;2023-01-19T12:12:06;26.35;;;8.82;;
71503;SDS011;59323;50.874;7.028;2023-01-19T12:14:41;26.77;;;9.48;;
71503;SDS011;59323;50.874;7.028;2023-01-19T12:17:15;29.13;;;9.10;;
71503;SDS011;59323;50.874;7.028;2023-01-19T12:19:49;26.53;;;9.23;;
71503;SDS011;59323;50.874;7.028;2023-01-19T12:22:20;23.33;;;8.07;;
71503;SDS011;59323;50.874;7.028;2023-01-19T12:24:55;26.52;;;8.93;;
71503;SDS011;59323;50.874;7.028;2023-01-19T12:27:37;21.08;;;8.05;;
71503;SDS011;59323;50.874;7.028;2023-01-19T12:30:05;29.08;;;8.27;;
71503;SDS011;59323;50.874;7.028;2023-01-19T12:32:41;26.37;;;8.53;;
71503;SDS011;59323;50.874;7.028;2023-01-19T12:35:13;23.25;;;7.72;;
71503;SDS011;59323;50.874;7.028;2023-01-19T12:46:41;23.30;;;8.43;;
71503;SDS011;59323;50.874;7.028;2023-01-19T12:54:50;33.22;;;8.65;;
71503;SDS011;59323;50.874;7.028;2023-01-19T12:57:22;21.23;;;8.07;;
71503;SDS011;59323;50.874;7.028;2023-01-19T12:59:55;26.77;;;8.05;;
71503;SDS011;59323;50.874;7.028;2023-01-19T13:13:24;20.63;;;7.28;;
71503;SDS011;59323;50.874;7.028;2023-01-19T13:15:50;19.67;;;7.50;;
71503;SDS011;59323;50.874;7.028;2023-01-19T13:18:17;23.02;;;7.75;;
71503;SDS011;59323;50.874;7.028;2023-01-19T13:20:49;18.25;;;6.78;;
71503;SDS011;59323;50.874;7.028;2023-01-19T13:23:25;20.77;;;7.43;;
71503;SDS011;59323;50.874;7.028;2023-01-19T13:25:52;19.88;;;7.35;;
71503;SDS011;59323;50.874;7.028;2023-01-19T13:28:31;21.50;;;6.30;;
71503;SDS011;59323;50.874;7.028;2023-01-19T13:30:59;23.33;;;7.45;;
71503;SDS011;59323;50.874;7.028;2023-01-19T13:33:27;22.52;;;7.07;;
71503;SDS011;59323;50.874;7.028;2023-01-19T13:35:57;21.15;;;6.95;;
71503;SDS011;59323;50.874;7.028;2023-01-19T13:38:23;21.20;;;7.00;;
71503;SDS011;59323;50.874;7.028;2023-01-19T13:40:49;21.25;;;6.70;;
71503;SDS011;59323;50.874;7.028;2023-01-19T13:43:21;23.30;;;7.28;;
71503;SDS011;59323;50.874;7.028;2023-01-19T13:45:51;20.00;;;6.82;;
71503;SDS011;59323;50.874;7.028;2023-01-19T13:48:19;19.60;;;6.80;;
71503;SDS011;59323;50.874;7.028;2023-01-19T13:51:00;19.98;;;6.70;;
71503;SDS011;59323;50.874;7.028;2023-01-19T13:53:28;17.67;;;6.47;;
71503;SDS011;59323;50.874;7.028;2023-01-19T13:56:07;20.85;;;6.90;;
71503;SDS011;59323;50.874;7.028;2023-01-19T13:58:55;22.73;;;6.72;;
71503;SDS011;59323;50.874;7.028;2023-01-19T14:01:25;16.60;;;6.53;;
71503;SDS011;59323;50.874;7.028;2023-01-19T14:03:51;20.20;;;6.95;;
71503;SDS011;59323;50.874;7.028;2023-01-19T14:06:37;17.70;;;7.55;;
71503;SDS011;59323;50.874;7.028;2023-01-19T14:09:26;19.33;;;6.75;;
71503;SDS011;59323;50.874;7.028;2023-01-19T14:12:04;22.47;;;6.90;;
71503;SDS011;59323;50.874;7.028;2023-01-19T14:14:38;18.90;;;6.43;;
71503;SDS011;59323;50.874;7.028;2023-01-19T14:17:03;20.15;;;7.35;;
71503;SDS011;59323;50.874;7.028;2023-01-19T14:19:47;21.30;;;6.70;;
71503;SDS011;59323;50.874;7.028;2023-01-19T14:22:17;17.00;;;6.45;;
71503;SDS011;59323;50.874;7.028;2023-01-19T14:24:42;19.87;;;6.77;;
71503;SDS011;59323;50.874;7.028;2023-01-19T14:29:44;19.20;;;6.00;;
71503;SDS011;59323;50.874;7.028;2023-01-19T14:32:24;19.92;;;6.38;;
71503;SDS011;59323;50.874;7.028;2023-01-19T14:37:43;17.70;;;5.22;;
71503;SDS011;59323;50.874;7.028;2023-01-19T14:40:15;16.42;;;5.45;;
71503;SDS011;59323;50.874;7.028;2023-01-19T14:42:44;16.55;;;5.55;;
71503;SDS011;59323;50.874;7.028;2023-01-19T14:48:04;15.57;;;5.37;;
71503;SDS011;59323;50.874;7.028;2023-01-19T14:50:36;16.50;;;5.30;;
71503;SDS011;59323;50.874;7.028;2023-01-19T14:53:06;22.15;;;5.45;;
71503;SDS011;59323;50.874;7.028;2023-01-19T14:55:59;16.88;;;5.57;;
71503;SDS011;59323;50.874;7.028;2023-01-19T14:58:28;13.82;;;5.10;;
71503;SDS011;59323;50.874;7.028;2023-01-19T15:00:56;14.57;;;5.20;;
71503;SDS011;59323;50.874;7.028;2023-01-19T15:03:22;12.43;;;5.00;;
71503;SDS011;59323;50.874;7.028;2023-01-19T15:05:48;14.23;;;5.28;;
71503;SDS011;59323;50.874;7.028;2023-01-19T15:08:27;19.00;;;5.78;;
71503;SDS011;59323;50.874;7.028;2023-01-19T15:10:54;16.00;;;5.40;;
71503;SDS011;59323;50.874;7.028;2023-01-19T15:13:21;17.20;;;5.87;;
71503;SDS011;59323;50.874;7.028;2023-01-19T15:15:49;14.10;;;5.78;;
71503;SDS011;59323;50.874;7.028;2023-01-19T15:18:16;16.27;;;5.30;;
71503;SDS011;59323;50.874;7.028;2023-01-19T15:20:47;18.40;;;5.68;;
71503;SDS011;59323;50.874;7.028;2023-01-19T15:23:13;13.50;;;4.40;;
71503;SDS011;59323;50.874;7.028;2023-01-19T15:25:38;13.77;;;5.70;;
71503;SDS011;59323;50.874;7.028;2023-01-19T15:28:14;16.13;;;4.70;;
71503;SDS011;59323;50.874;7.028;2023-01-19T15:30:42;14.52;;;5.78;;
71503;SDS011;59323;50.874;7.028;2023-01-19T15:33:14;14.52;;;4.90;;
71503;SDS011;59323;50.874;7.028;2023-01-19T15:35:43;17.50;;;5.90;;
71503;SDS011;59323;50.874;7.028;2023-01-19T15:38:08;17.10;;;5.27;;
71503;SDS011;59323;50.874;7.028;2023-01-19T15:40:34;13.67;;;4.60;;
71503;SDS011;59323;50.874;7.028;2023-01-19T15:42:59;15.00;;;4.20;;
71503;SDS011;59323;50.874;7.028;2023-01-19T15:45:37;14.63;;;4.43;;
71503;SDS011;59323;50.874;7.028;2023-01-19T15:48:26;11.57;;;3.63;;
71503;SDS011;59323;50.874;7.028;2023-01-19T15:50:52;13.93;;;4.00;;